sensor_id;sensor_type;location;lat;lon;timestamp;P1;durP1;ratioP1;P2;durP2;ratioP2
21754;SDS011;11039;50.028;19.938;2022-10-22T00:00:56;15.27;;;8.75;;
21754;SDS011;11039;50.028;19.938;2022-10-22T00:03:22;16.15;;;9.18;;
21754;SDS011;11039;50.028;19.938;2022-10-22T00:05:48;13.75;;;9.40;;
21754;SDS011;11039;50.028;19.938;2022-10-22T00:08:14;13.80;;;9.00;;
21754;SDS011;11039;50.028;19.938;2022-10-22T00:10:40;16.48;;;9.70;;
21754;SDS011;11039;50.028;19.938;2022-10-22T00:13:06;17.83;;;8.93;;
21754;SDS011;11039;50.028;19.938;2022-10-22T00:15:33;17.33;;;9.52;;
21754;SDS011;11039;50.028;19.938;2022-10-22T00:17:59;17.70;;;10.10;;
21754;SDS011;11039;50.028;19.938;2022-10-22T00:20:25;15.57;;;9.90;;
21754;SDS011;11039;50.028;19.938;2022-10-22T00:22:51;17.52;;;9.82;;
21754;SDS011;11039;50.028;19.938;2022-10-22T00:25:17;14.85;;;9.20;;
21754;SDS011;11039;50.028;19.938;2022-10-22T00:27:43;15.82;;;9.70;;
21754;SDS011;11039;50.028;19.938;2022-10-22T00:30:09;17.60;;;10.23;;
21754;SDS011;11039;50.028;19.938;2022-10-22T00:32:35;15.95;;;9.13;;
21754;SDS011;11039;50.028;19.938;2022-10-22T00:35:01;16.65;;;9.70;;
21754;SDS011;11039;50.028;19.938;2022-10-22T00:37:27;15.00;;;10.00;;
21754;SDS011;11039;50.028;19.938;2022-10-22T00:39:54;16.52;;;10.30;;
21754;SDS011;11039;50.028;19.938;2022-10-22T00:42:21;15.68;;;9.68;;
21754;SDS011;11039;50.028;19.938;2022-10-22T00:47:30;16.23;;;10.07;;
21754;SDS011;11039;50.028;19.938;2022-10-22T00:49:57;17.08;;;10.52;;
21754;SDS011;11039;50.028;19.938;2022-10-22T00:52:24;15.93;;;10.02;;
21754;SDS011;11039;50.028;19.938;2022-10-22T00:54:50;14.50;;;9.90;;
21754;SDS011;11039;50.028;19.938;2022-10-22T00:57:17;16.13;;;9.60;;
21754;SDS011;11039;50.028;19.938;2022-10-22T00:59:44;17.17;;;9.68;;
21754;SDS011;11039;50.028;19.938;2022-10-22T01:02:10;18.13;;;10.85;;
21754;SDS011;11039;50.028;19.938;2022-10-22T01:04:36;16.30;;;10.68;;
21754;SDS011;11039;50.028;19.938;2022-10-22T01:07:02;15.85;;;10.43;;
21754;SDS011;11039;50.028;19.938;2022-10-22T01:17:30;17.67;;;10.40;;
21754;SDS011;11039;50.028;19.938;2022-10-22T01:22:38;17.20;;;10.73;;
21754;SDS011;11039;50.028;19.938;2022-10-22T01:25:16;15.98;;;10.52;;
21754;SDS011;11039;50.028;19.938;2022-10-22T01:27:49;18.50;;;10.93;;
21754;SDS011;11039;50.028;19.938;2022-10-22T01:30:18;16.55;;;10.90;;
21754;SDS011;11039;50.028;19.938;2022-10-22T01:32:45;16.05;;;10.30;;
21754;SDS011;11039;50.028;19.938;2022-10-22T01:35:13;19.55;;;10.98;;
21754;SDS011;11039;50.028;19.938;2022-10-22T01:37:43;16.38;;;10.90;;
21754;SDS011;11039;50.028;19.938;2022-10-22T01:40:10;14.05;;;10.48;;
21754;SDS011;11039;50.028;19.938;2022-10-22T01:42:36;16.88;;;10.95;;
21754;SDS011;11039;50.028;19.938;2022-10-22T01:45:07;15.95;;;9.98;;
21754;SDS011;11039;50.028;19.938;2022-10-22T01:55:24;17.67;;;10.25;;
21754;SDS011;11039;50.028;19.938;2022-10-22T01:57:54;21.15;;;10.77;;
21754;SDS011;11039;50.028;19.938;2022-10-22T02:00:24;17.65;;;10.85;;
21754;SDS011;11039;50.028;19.938;2022-10-22T02:05:43;16.30;;;10.85;;
21754;SDS011;11039;50.028;19.938;2022-10-22T02:08:11;16.65;;;10.52;;
21754;SDS011;11039;50.028;19.938;2022-10-22T02:10:39;18.40;;;11.40;;
21754;SDS011;11039;50.028;19.938;2022-10-22T02:13:07;16.25;;;10.90;;
21754;SDS011;11039;50.028;19.938;2022-10-22T02:15:34;18.10;;;10.75;;
21754;SDS011;11039;50.028;19.938;2022-10-22T02:18:01;15.43;;;10.07;;
21754;SDS011;11039;50.028;19.938;2022-10-22T02:20:28;19.23;;;11.48;;
21754;SDS011;11039;50.028;19.938;2022-10-22T02:22:55;16.25;;;10.65;;
21754;SDS011;11039;50.028;19.938;2022-10-22T02:25:22;17.40;;;10.77;;
21754;SDS011;11039;50.028;19.938;2022-10-22T02:28:11;17.80;;;10.82;;
21754;SDS011;11039;50.028;19.938;2022-10-22T02:30:38;16.63;;;10.57;;
21754;SDS011;11039;50.028;19.938;2022-10-22T02:33:20;16.02;;;10.15;;
21754;SDS011;11039;50.028;19.938;2022-10-22T02:35:47;16.13;;;10.85;;
21754;SDS011;11039;50.028;19.938;2022-10-22T02:38:14;17.90;;;10.15;;
21754;SDS011;11039;50.028;19.938;2022-10-22T02:40:41;18.67;;;10.82;;
21754;SDS011;11039;50.028;19.938;2022-10-22T02:43:07;16.65;;;10.40;;
21754;SDS011;11039;50.028;19.938;2022-10-22T02:45:33;18.60;;;10.80;;
21754;SDS011;11039;50.028;19.938;2022-10-22T02:47:59;17.58;;;10.75;;
21754;SDS011;11039;50.028;19.938;2022-10-22T02:50:25;17.90;;;10.82;;
21754;SDS011;11039;50.028;19.938;2022-10-22T02:52:51;17.63;;;9.88;;
21754;SDS011;11039;50.028;19.938;2022-10-22T02:55:17;18.77;;;11.15;;
21754;SDS011;11039;50.028;19.938;2022-10-22T02:57:43;17.67;;;10.80;;
21754;SDS011;11039;50.028;19.938;2022-10-22T03:00:09;17.40;;;10.40;;
21754;SDS011;11039;50.028;19.938;2022-10-22T03:02:35;16.77;;;11.07;;
21754;SDS011;11039;50.028;19.938;2022-10-22T03:05:02;16.90;;;10.48;;
21754;SDS011;11039;50.028;19.938;2022-10-22T03:07:28;17.17;;;10.75;;
21754;SDS011;11039;50.028;19.938;2022-10-22T03:09:54;14.75;;;10.48;;
21754;SDS011;11039;50.028;19.938;2022-10-22T03:12:20;15.45;;;10.63;;
21754;SDS011;11039;50.028;19.938;2022-10-22T03:14:46;17.77;;;10.65;;
21754;SDS011;11039;50.028;19.938;2022-10-22T03:17:12;17.73;;;10.88;;
21754;SDS011;11039;50.028;19.938;2022-10-22T03:19:38;16.90;;;10.45;;
21754;SDS011;11039;50.028;19.938;2022-10-22T03:22:06;18.63;;;10.93;;
21754;SDS011;11039;50.028;19.938;2022-10-22T03:24:33;16.50;;;10.07;;
21754;SDS011;11039;50.028;19.938;2022-10-22T03:27:00;16.88;;;10.85;;
21754;SDS011;11039;50.028;19.938;2022-10-22T03:29:26;17.50;;;10.70;;
21754;SDS011;11039;50.028;19.938;2022-10-22T03:31:52;14.88;;;10.10;;
21754;SDS011;11039;50.028;19.938;2022-10-22T03:34:19;18.40;;;10.38;;
21754;SDS011;11039;50.028;19.938;2022-10-22T03:36:45;16.58;;;10.43;;
21754;SDS011;11039;50.028;19.938;2022-10-22T03:39:12;16.63;;;10.45;;
21754;SDS011;11039;50.028;19.938;2022-10-22T03:41:39;15.13;;;10.18;;
21754;SDS011;11039;50.028;19.938;2022-10-22T03:44:05;16.48;;;10.82;;
21754;SDS011;11039;50.028;19.938;2022-10-22T03:46:32;16.83;;;10.52;;
21754;SDS011;11039;50.028;19.938;2022-10-22T03:48:58;15.90;;;10.48;;
21754;SDS011;11039;50.028;19.938;2022-10-22T03:51:27;15.02;;;10.10;;
21754;SDS011;11039;50.028;19.938;2022-10-22T03:53:53;18.17;;;10.50;;
21754;SDS011;11039;50.028;19.938;2022-10-22T03:56:19;16.38;;;10.98;;
21754;SDS011;11039;50.028;19.938;2022-10-22T03:58:45;19.15;;;11.05;;
21754;SDS011;11039;50.028;19.938;2022-10-22T04:01:12;17.20;;;10.93;;
21754;SDS011;11039;50.028;19.938;2022-10-22T04:03:38;15.75;;;10.60;;
21754;SDS011;11039;50.028;19.938;2022-10-22T04:06:08;18.92;;;11.35;;
21754;SDS011;11039;50.028;19.938;2022-10-22T04:08:35;15.20;;;9.82;;
21754;SDS011;11039;50.028;19.938;2022-10-22T04:11:01;17.40;;;11.02;;
21754;SDS011;11039;50.028;19.938;2022-10-22T04:13:27;15.57;;;10.45;;
21754;SDS011;11039;50.028;19.938;2022-10-22T04:15:53;14.80;;;10.02;;
21754;SDS011;11039;50.028;19.938;2022-10-22T04:18:20;16.38;;;9.65;;
21754;SDS011;11039;50.028;19.938;2022-10-22T04:20:46;14.95;;;10.38;;
21754;SDS011;11039;50.028;19.938;2022-10-22T04:23:13;16.90;;;10.30;;
21754;SDS011;11039;50.028;19.938;2022-10-22T04:25:39;14.68;;;9.73;;
21754;SDS011;11039;50.028;19.938;2022-10-22T04:28:06;15.32;;;9.77;;
21754;SDS011;11039;50.028;19.938;2022-10-22T04:30:32;15.00;;;10.20;;
21754;SDS011;11039;50.028;19.938;2022-10-22T04:32:58;15.30;;;9.68;;
21754;SDS011;11039;50.028;19.938;2022-10-22T04:35:24;16.52;;;11.10;;
21754;SDS011;11039;50.028;19.938;2022-10-22T04:37:50;15.93;;;9.40;;
21754;SDS011;11039;50.028;19.938;2022-10-22T04:40:16;15.95;;;9.48;;
21754;SDS011;11039;50.028;19.938;2022-10-22T04:42:42;15.82;;;10.00;;
21754;SDS011;11039;50.028;19.938;2022-10-22T04:45:08;14.65;;;9.45;;
21754;SDS011;11039;50.028;19.938;2022-10-22T04:47:35;15.88;;;10.18;;
21754;SDS011;11039;50.028;19.938;2022-10-22T04:50:01;14.43;;;9.23;;
21754;SDS011;11039;50.028;19.938;2022-10-22T04:52:27;18.33;;;9.90;;
21754;SDS011;11039;50.028;19.938;2022-10-22T04:54:53;16.75;;;9.93;;
21754;SDS011;11039;50.028;19.938;2022-10-22T04:57:19;16.25;;;9.98;;
21754;SDS011;11039;50.028;19.938;2022-10-22T04:59:45;14.98;;;9.23;;
21754;SDS011;11039;50.028;19.938;2022-10-22T05:02:11;15.15;;;9.82;;
21754;SDS011;11039;50.028;19.938;2022-10-22T05:04:37;16.38;;;9.85;;
21754;SDS011;11039;50.028;19.938;2022-10-22T05:07:03;14.63;;;9.98;;
21754;SDS011;11039;50.028;19.938;2022-10-22T05:09:29;15.50;;;10.00;;
21754;SDS011;11039;50.028;19.938;2022-10-22T05:11:55;14.48;;;9.63;;
21754;SDS011;11039;50.028;19.938;2022-10-22T05:14:22;14.05;;;9.73;;
21754;SDS011;11039;50.028;19.938;2022-10-22T05:16:48;14.70;;;9.48;;
21754;SDS011;11039;50.028;19.938;2022-10-22T05:19:21;15.85;;;9.88;;
21754;SDS011;11039;50.028;19.938;2022-10-22T05:21:51;13.95;;;9.57;;
21754;SDS011;11039;50.028;19.938;2022-10-22T05:24:17;13.00;;;9.00;;
21754;SDS011;11039;50.028;19.938;2022-10-22T05:26:43;15.27;;;9.27;;
21754;SDS011;11039;50.028;19.938;2022-10-22T05:29:09;14.88;;;9.32;;
21754;SDS011;11039;50.028;19.938;2022-10-22T05:31:35;15.25;;;8.85;;
21754;SDS011;11039;50.028;19.938;2022-10-22T05:34:02;15.40;;;9.20;;
21754;SDS011;11039;50.028;19.938;2022-10-22T05:36:29;15.05;;;9.75;;
21754;SDS011;11039;50.028;19.938;2022-10-22T05:38:55;13.68;;;9.15;;
21754;SDS011;11039;50.028;19.938;2022-10-22T05:41:22;16.38;;;9.88;;
21754;SDS011;11039;50.028;19.938;2022-10-22T05:43:48;13.35;;;9.57;;
21754;SDS011;11039;50.028;19.938;2022-10-22T05:46:16;14.55;;;9.43;;
21754;SDS011;11039;50.028;19.938;2022-10-22T05:48:42;15.73;;;9.02;;
21754;SDS011;11039;50.028;19.938;2022-10-22T05:51:09;13.73;;;9.07;;
21754;SDS011;11039;50.028;19.938;2022-10-22T05:53:36;12.63;;;9.27;;
21754;SDS011;11039;50.028;19.938;2022-10-22T05:56:04;15.13;;;9.20;;
21754;SDS011;11039;50.028;19.938;2022-10-22T05:58:30;17.75;;;9.40;;
21754;SDS011;11039;50.028;19.938;2022-10-22T06:01:00;13.75;;;8.90;;
21754;SDS011;11039;50.028;19.938;2022-10-22T06:03:26;13.00;;;9.05;;
21754;SDS011;11039;50.028;19.938;2022-10-22T06:05:53;14.05;;;9.05;;
21754;SDS011;11039;50.028;19.938;2022-10-22T06:08:19;13.05;;;8.52;;
21754;SDS011;11039;50.028;19.938;2022-10-22T06:10:45;13.00;;;8.88;;
21754;SDS011;11039;50.028;19.938;2022-10-22T06:13:11;13.10;;;8.77;;
21754;SDS011;11039;50.028;19.938;2022-10-22T06:15:37;12.93;;;8.77;;
21754;SDS011;11039;50.028;19.938;2022-10-22T06:18:03;12.13;;;8.32;;
21754;SDS011;11039;50.028;19.938;2022-10-22T06:20:29;14.45;;;9.20;;
21754;SDS011;11039;50.028;19.938;2022-10-22T06:22:55;11.68;;;8.70;;
21754;SDS011;11039;50.028;19.938;2022-10-22T06:25:21;12.48;;;8.70;;
21754;SDS011;11039;50.028;19.938;2022-10-22T06:27:48;12.90;;;8.35;;
21754;SDS011;11039;50.028;19.938;2022-10-22T06:30:15;11.57;;;8.57;;
21754;SDS011;11039;50.028;19.938;2022-10-22T06:32:41;13.45;;;9.02;;
21754;SDS011;11039;50.028;19.938;2022-10-22T06:35:07;14.48;;;8.85;;
21754;SDS011;11039;50.028;19.938;2022-10-22T06:37:33;14.05;;;8.93;;
21754;SDS011;11039;50.028;19.938;2022-10-22T06:39:59;12.90;;;8.55;;
21754;SDS011;11039;50.028;19.938;2022-10-22T06:42:26;12.18;;;8.63;;
21754;SDS011;11039;50.028;19.938;2022-10-22T06:44:52;14.02;;;8.55;;
21754;SDS011;11039;50.028;19.938;2022-10-22T06:47:18;13.20;;;9.10;;
21754;SDS011;11039;50.028;19.938;2022-10-22T06:49:44;13.35;;;8.95;;
21754;SDS011;11039;50.028;19.938;2022-10-22T06:52:11;14.55;;;9.07;;
21754;SDS011;11039;50.028;19.938;2022-10-22T06:54:37;13.27;;;8.95;;
21754;SDS011;11039;50.028;19.938;2022-10-22T06:57:03;12.95;;;8.75;;
21754;SDS011;11039;50.028;19.938;2022-10-22T06:59:29;12.95;;;8.32;;
21754;SDS011;11039;50.028;19.938;2022-10-22T07:01:55;13.27;;;8.88;;
21754;SDS011;11039;50.028;19.938;2022-10-22T07:04:21;12.30;;;8.35;;
21754;SDS011;11039;50.028;19.938;2022-10-22T07:06:47;13.27;;;8.52;;
21754;SDS011;11039;50.028;19.938;2022-10-22T07:09:13;12.18;;;8.43;;
21754;SDS011;11039;50.028;19.938;2022-10-22T07:11:40;12.73;;;9.07;;
21754;SDS011;11039;50.028;19.938;2022-10-22T07:14:06;14.93;;;8.38;;
21754;SDS011;11039;50.028;19.938;2022-10-22T07:16:33;13.00;;;9.10;;
21754;SDS011;11039;50.028;19.938;2022-10-22T07:18:59;11.77;;;8.70;;
21754;SDS011;11039;50.028;19.938;2022-10-22T07:21:26;13.18;;;9.30;;
21754;SDS011;11039;50.028;19.938;2022-10-22T07:23:52;11.55;;;8.80;;
21754;SDS011;11039;50.028;19.938;2022-10-22T07:26:18;15.30;;;9.02;;
21754;SDS011;11039;50.028;19.938;2022-10-22T07:28:44;13.95;;;8.82;;
21754;SDS011;11039;50.028;19.938;2022-10-22T07:31:11;12.77;;;8.85;;
21754;SDS011;11039;50.028;19.938;2022-10-22T07:33:38;14.15;;;9.02;;
21754;SDS011;11039;50.028;19.938;2022-10-22T07:36:05;12.50;;;8.23;;
21754;SDS011;11039;50.028;19.938;2022-10-22T07:38:31;13.93;;;8.55;;
21754;SDS011;11039;50.028;19.938;2022-10-22T07:40:58;12.80;;;8.45;;
21754;SDS011;11039;50.028;19.938;2022-10-22T07:43:24;12.68;;;8.65;;
21754;SDS011;11039;50.028;19.938;2022-10-22T07:45:50;12.18;;;8.32;;
21754;SDS011;11039;50.028;19.938;2022-10-22T07:48:16;11.50;;;8.20;;
21754;SDS011;11039;50.028;19.938;2022-10-22T07:50:42;11.70;;;8.63;;
21754;SDS011;11039;50.028;19.938;2022-10-22T07:53:08;11.32;;;8.45;;
21754;SDS011;11039;50.028;19.938;2022-10-22T07:55:34;11.35;;;8.50;;
21754;SDS011;11039;50.028;19.938;2022-10-22T07:58:01;12.57;;;8.85;;
21754;SDS011;11039;50.028;19.938;2022-10-22T08:00:27;13.45;;;8.63;;
21754;SDS011;11039;50.028;19.938;2022-10-22T08:02:53;15.65;;;8.65;;
21754;SDS011;11039;50.028;19.938;2022-10-22T08:05:19;14.63;;;8.93;;
21754;SDS011;11039;50.028;19.938;2022-10-22T08:07:45;12.65;;;8.52;;
21754;SDS011;11039;50.028;19.938;2022-10-22T08:10:11;14.23;;;8.98;;
21754;SDS011;11039;50.028;19.938;2022-10-22T08:12:37;15.32;;;8.93;;
21754;SDS011;11039;50.028;19.938;2022-10-22T08:15:04;14.50;;;8.93;;
21754;SDS011;11039;50.028;19.938;2022-10-22T08:17:30;12.98;;;8.73;;
21754;SDS011;11039;50.028;19.938;2022-10-22T08:19:56;12.90;;;8.65;;
21754;SDS011;11039;50.028;19.938;2022-10-22T08:22:22;11.82;;;7.95;;
21754;SDS011;11039;50.028;19.938;2022-10-22T08:24:48;14.80;;;8.45;;
21754;SDS011;11039;50.028;19.938;2022-10-22T08:27:14;17.67;;;11.70;;
21754;SDS011;11039;50.028;19.938;2022-10-22T08:29:40;17.77;;;12.48;;
21754;SDS011;11039;50.028;19.938;2022-10-22T08:32:06;24.13;;;13.10;;
21754;SDS011;11039;50.028;19.938;2022-10-22T08:34:32;20.02;;;13.23;;
21754;SDS011;11039;50.028;19.938;2022-10-22T08:36:58;19.63;;;13.50;;
21754;SDS011;11039;50.028;19.938;2022-10-22T08:39:24;17.50;;;12.25;;
21754;SDS011;11039;50.028;19.938;2022-10-22T08:41:57;23.42;;;12.95;;
21754;SDS011;11039;50.028;19.938;2022-10-22T08:49:22;19.85;;;12.27;;
21754;SDS011;11039;50.028;19.938;2022-10-22T08:51:49;19.65;;;11.98;;
21754;SDS011;11039;50.028;19.938;2022-10-22T08:59:25;17.55;;;10.57;;
21754;SDS011;11039;50.028;19.938;2022-10-22T09:01:53;17.88;;;10.93;;
21754;SDS011;11039;50.028;19.938;2022-10-22T09:04:32;15.85;;;9.93;;
21754;SDS011;11039;50.028;19.938;2022-10-22T09:07:01;16.20;;;10.07;;
21754;SDS011;11039;50.028;19.938;2022-10-22T09:09:34;16.40;;;10.02;;
21754;SDS011;11039;50.028;19.938;2022-10-22T09:12:03;17.55;;;9.77;;
21754;SDS011;11039;50.028;19.938;2022-10-22T09:14:31;15.70;;;10.48;;
21754;SDS011;11039;50.028;19.938;2022-10-22T09:24:47;19.88;;;12.57;;
21754;SDS011;11039;50.028;19.938;2022-10-22T09:27:15;18.55;;;11.45;;
21754;SDS011;11039;50.028;19.938;2022-10-22T09:29:42;25.85;;;12.48;;
21754;SDS011;11039;50.028;19.938;2022-10-22T09:32:08;20.98;;;12.50;;
21754;SDS011;11039;50.028;19.938;2022-10-22T09:34:34;24.13;;;11.82;;
21754;SDS011;11039;50.028;19.938;2022-10-22T09:37:09;21.50;;;12.43;;
21754;SDS011;11039;50.028;19.938;2022-10-22T09:39:37;21.45;;;12.88;;
21754;SDS011;11039;50.028;19.938;2022-10-22T09:42:03;18.25;;;12.52;;
21754;SDS011;11039;50.028;19.938;2022-10-22T09:44:31;20.52;;;12.13;;
21754;SDS011;11039;50.028;19.938;2022-10-22T09:46:58;20.42;;;12.90;;
21754;SDS011;11039;50.028;19.938;2022-10-22T09:49:24;18.40;;;12.02;;
21754;SDS011;11039;50.028;19.938;2022-10-22T09:51:56;22.17;;;12.60;;
21754;SDS011;11039;50.028;19.938;2022-10-22T09:56:58;19.80;;;11.77;;
21754;SDS011;11039;50.028;19.938;2022-10-22T09:59:31;18.92;;;12.40;;
21754;SDS011;11039;50.028;19.938;2022-10-22T10:04:39;26.27;;;12.00;;
21754;SDS011;11039;50.028;19.938;2022-10-22T10:07:14;20.17;;;11.38;;
21754;SDS011;11039;50.028;19.938;2022-10-22T10:09:40;18.17;;;11.23;;
21754;SDS011;11039;50.028;19.938;2022-10-22T10:12:29;22.42;;;11.75;;
21754;SDS011;11039;50.028;19.938;2022-10-22T10:20:23;19.42;;;11.07;;
21754;SDS011;11039;50.028;19.938;2022-10-22T10:25:34;22.02;;;11.68;;
21754;SDS011;11039;50.028;19.938;2022-10-22T10:31:01;25.05;;;12.20;;
21754;SDS011;11039;50.028;19.938;2022-10-22T10:36:16;22.73;;;12.57;;
21754;SDS011;11039;50.028;19.938;2022-10-22T10:46:27;27.35;;;14.05;;
21754;SDS011;11039;50.028;19.938;2022-10-22T10:49:17;23.88;;;13.60;;
21754;SDS011;11039;50.028;19.938;2022-10-22T11:01:55;21.83;;;14.05;;
21754;SDS011;11039;50.028;19.938;2022-10-22T11:07:06;21.60;;;12.88;;
21754;SDS011;11039;50.028;19.938;2022-10-22T11:09:38;17.50;;;12.32;;
21754;SDS011;11039;50.028;19.938;2022-10-22T11:12:09;21.92;;;12.02;;
21754;SDS011;11039;50.028;19.938;2022-10-22T11:14:44;19.83;;;12.88;;
21754;SDS011;11039;50.028;19.938;2022-10-22T11:17:15;18.58;;;11.52;;
21754;SDS011;11039;50.028;19.938;2022-10-22T11:19:47;19.85;;;11.52;;
21754;SDS011;11039;50.028;19.938;2022-10-22T11:22:18;19.58;;;12.80;;
21754;SDS011;11039;50.028;19.938;2022-10-22T11:25:03;18.42;;;12.00;;
21754;SDS011;11039;50.028;19.938;2022-10-22T11:27:52;18.35;;;11.63;;
21754;SDS011;11039;50.028;19.938;2022-10-22T11:30:18;20.67;;;13.40;;
21754;SDS011;11039;50.028;19.938;2022-10-22T11:33:06;21.67;;;13.18;;
21754;SDS011;11039;50.028;19.938;2022-10-22T11:35:31;22.23;;;13.23;;
21754;SDS011;11039;50.028;19.938;2022-10-22T11:37:58;18.20;;;12.52;;
21754;SDS011;11039;50.028;19.938;2022-10-22T11:42:58;23.80;;;12.65;;
21754;SDS011;11039;50.028;19.938;2022-10-22T11:45:29;22.90;;;13.13;;
21754;SDS011;11039;50.028;19.938;2022-10-22T11:48:06;21.80;;;12.85;;
21754;SDS011;11039;50.028;19.938;2022-10-22T11:50:54;22.17;;;12.88;;
21754;SDS011;11039;50.028;19.938;2022-10-22T11:56:24;17.48;;;12.00;;
21754;SDS011;11039;50.028;19.938;2022-10-22T11:58:42;20.20;;;13.38;;
21754;SDS011;11039;50.028;19.938;2022-10-22T12:03:38;19.85;;;12.18;;
21754;SDS011;11039;50.028;19.938;2022-10-22T12:08:43;18.88;;;12.82;;
21754;SDS011;11039;50.028;19.938;2022-10-22T12:16:19;21.67;;;12.98;;
21754;SDS011;11039;50.028;19.938;2022-10-22T12:18:48;19.77;;;12.27;;
21754;SDS011;11039;50.028;19.938;2022-10-22T12:21:14;21.55;;;12.60;;
21754;SDS011;11039;50.028;19.938;2022-10-22T12:23:41;18.10;;;12.60;;
21754;SDS011;11039;50.028;19.938;2022-10-22T12:26:24;22.50;;;12.57;;
21754;SDS011;11039;50.028;19.938;2022-10-22T12:28:55;24.13;;;12.63;;
21754;SDS011;11039;50.028;19.938;2022-10-22T12:31:21;21.35;;;12.73;;
21754;SDS011;11039;50.028;19.938;2022-10-22T12:33:47;22.88;;;12.77;;
21754;SDS011;11039;50.028;19.938;2022-10-22T12:36:20;19.77;;;12.60;;
21754;SDS011;11039;50.028;19.938;2022-10-22T12:38:46;21.10;;;12.23;;
21754;SDS011;11039;50.028;19.938;2022-10-22T12:41:12;20.20;;;13.15;;
21754;SDS011;11039;50.028;19.938;2022-10-22T12:43:38;21.25;;;12.63;;
21754;SDS011;11039;50.028;19.938;2022-10-22T12:46:08;22.20;;;14.02;;
21754;SDS011;11039;50.028;19.938;2022-10-22T12:48:38;21.88;;;13.13;;
21754;SDS011;11039;50.028;19.938;2022-10-22T12:51:05;24.17;;;13.77;;
21754;SDS011;11039;50.028;19.938;2022-10-22T12:53:37;22.38;;;12.90;;
21754;SDS011;11039;50.028;19.938;2022-10-22T12:56:05;20.85;;;12.88;;
21754;SDS011;11039;50.028;19.938;2022-10-22T12:58:35;23.00;;;13.68;;
21754;SDS011;11039;50.028;19.938;2022-10-22T13:01:03;22.92;;;12.90;;
21754;SDS011;11039;50.028;19.938;2022-10-22T13:03:31;22.10;;;13.13;;
21754;SDS011;11039;50.028;19.938;2022-10-22T13:08:39;24.02;;;13.70;;
21754;SDS011;11039;50.028;19.938;2022-10-22T13:11:06;18.67;;;12.35;;
21754;SDS011;11039;50.028;19.938;2022-10-22T13:16:14;21.58;;;12.93;;
21754;SDS011;11039;50.028;19.938;2022-10-22T13:18:41;20.52;;;13.20;;
21754;SDS011;11039;50.028;19.938;2022-10-22T13:21:27;21.45;;;12.82;;
21754;SDS011;11039;50.028;19.938;2022-10-22T13:24:16;25.23;;;13.38;;
21754;SDS011;11039;50.028;19.938;2022-10-22T13:26:39;24.63;;;12.50;;
21754;SDS011;11039;50.028;19.938;2022-10-22T13:29:09;20.20;;;12.85;;
21754;SDS011;11039;50.028;19.938;2022-10-22T13:31:43;24.63;;;13.60;;
21754;SDS011;11039;50.028;19.938;2022-10-22T13:34:11;21.45;;;13.30;;
21754;SDS011;11039;50.028;19.938;2022-10-22T13:36:38;21.83;;;13.65;;
21754;SDS011;11039;50.028;19.938;2022-10-22T13:39:05;20.95;;;12.23;;
21754;SDS011;11039;50.028;19.938;2022-10-22T13:41:38;19.60;;;10.82;;
21754;SDS011;11039;50.028;19.938;2022-10-22T13:44:05;20.33;;;10.45;;
21754;SDS011;11039;50.028;19.938;2022-10-22T13:46:31;19.02;;;10.85;;
21754;SDS011;11039;50.028;19.938;2022-10-22T13:48:57;17.35;;;10.30;;
21754;SDS011;11039;50.028;19.938;2022-10-22T13:51:28;18.70;;;10.35;;
21754;SDS011;11039;50.028;19.938;2022-10-22T13:53:57;18.25;;;10.30;;
21754;SDS011;11039;50.028;19.938;2022-10-22T13:56:23;16.35;;;10.18;;
21754;SDS011;11039;50.028;19.938;2022-10-22T13:58:49;16.65;;;9.80;;
21754;SDS011;11039;50.028;19.938;2022-10-22T14:01:17;16.45;;;10.27;;
21754;SDS011;11039;50.028;19.938;2022-10-22T14:03:44;17.40;;;10.05;;
21754;SDS011;11039;50.028;19.938;2022-10-22T14:06:11;16.58;;;9.75;;
21754;SDS011;11039;50.028;19.938;2022-10-22T14:08:38;15.60;;;9.63;;
21754;SDS011;11039;50.028;19.938;2022-10-22T14:11:04;12.45;;;9.10;;
21754;SDS011;11039;50.028;19.938;2022-10-22T14:13:30;15.48;;;9.43;;
21754;SDS011;11039;50.028;19.938;2022-10-22T14:15:56;16.08;;;8.80;;
21754;SDS011;11039;50.028;19.938;2022-10-22T14:18:23;13.10;;;8.73;;
21754;SDS011;11039;50.028;19.938;2022-10-22T14:20:51;14.82;;;8.18;;
21754;SDS011;11039;50.028;19.938;2022-10-22T14:23:19;17.02;;;9.05;;
21754;SDS011;11039;50.028;19.938;2022-10-22T14:25:45;14.02;;;8.73;;
21754;SDS011;11039;50.028;19.938;2022-10-22T14:28:12;18.67;;;9.40;;
21754;SDS011;11039;50.028;19.938;2022-10-22T14:30:38;14.13;;;9.02;;
21754;SDS011;11039;50.028;19.938;2022-10-22T14:33:09;12.48;;;8.25;;
21754;SDS011;11039;50.028;19.938;2022-10-22T14:35:37;12.70;;;8.05;;
21754;SDS011;11039;50.028;19.938;2022-10-22T14:38:03;13.65;;;8.57;;
21754;SDS011;11039;50.028;19.938;2022-10-22T14:40:29;14.50;;;8.68;;
21754;SDS011;11039;50.028;19.938;2022-10-22T14:42:55;15.95;;;8.57;;
21754;SDS011;11039;50.028;19.938;2022-10-22T14:45:23;11.02;;;7.72;;
21754;SDS011;11039;50.028;19.938;2022-10-22T14:47:50;14.73;;;8.52;;
21754;SDS011;11039;50.028;19.938;2022-10-22T14:50:19;13.57;;;8.68;;
21754;SDS011;11039;50.028;19.938;2022-10-22T14:52:45;11.70;;;8.48;;
21754;SDS011;11039;50.028;19.938;2022-10-22T14:55:11;13.75;;;8.25;;
21754;SDS011;11039;50.028;19.938;2022-10-22T14:57:38;16.02;;;8.93;;
21754;SDS011;11039;50.028;19.938;2022-10-22T15:00:08;13.40;;;8.00;;
21754;SDS011;11039;50.028;19.938;2022-10-22T15:02:35;10.82;;;7.78;;
21754;SDS011;11039;50.028;19.938;2022-10-22T15:05:01;13.48;;;8.48;;
21754;SDS011;11039;50.028;19.938;2022-10-22T15:07:27;13.32;;;7.90;;
21754;SDS011;11039;50.028;19.938;2022-10-22T15:09:53;12.20;;;8.32;;
21754;SDS011;11039;50.028;19.938;2022-10-22T15:12:19;13.45;;;8.07;;
21754;SDS011;11039;50.028;19.938;2022-10-22T15:14:48;15.35;;;8.50;;
21754;SDS011;11039;50.028;19.938;2022-10-22T15:17:15;13.38;;;8.50;;
21754;SDS011;11039;50.028;19.938;2022-10-22T15:19:41;14.05;;;8.55;;
21754;SDS011;11039;50.028;19.938;2022-10-22T15:22:07;12.52;;;8.27;;
21754;SDS011;11039;50.028;19.938;2022-10-22T15:24:34;11.77;;;7.40;;
21754;SDS011;11039;50.028;19.938;2022-10-22T15:27:00;12.88;;;8.02;;
21754;SDS011;11039;50.028;19.938;2022-10-22T15:29:27;11.57;;;8.02;;
21754;SDS011;11039;50.028;19.938;2022-10-22T15:31:54;13.38;;;8.27;;
21754;SDS011;11039;50.028;19.938;2022-10-22T15:34:28;14.65;;;8.02;;
21754;SDS011;11039;50.028;19.938;2022-10-22T15:36:55;11.82;;;8.18;;
21754;SDS011;11039;50.028;19.938;2022-10-22T15:39:21;12.15;;;8.23;;
21754;SDS011;11039;50.028;19.938;2022-10-22T15:41:48;11.52;;;7.68;;
21754;SDS011;11039;50.028;19.938;2022-10-22T15:44:15;11.80;;;7.75;;
21754;SDS011;11039;50.028;19.938;2022-10-22T15:46:41;12.07;;;7.88;;
21754;SDS011;11039;50.028;19.938;2022-10-22T15:49:07;11.48;;;7.80;;
21754;SDS011;11039;50.028;19.938;2022-10-22T15:51:33;11.55;;;7.55;;
21754;SDS011;11039;50.028;19.938;2022-10-22T15:53:59;11.75;;;7.60;;
21754;SDS011;11039;50.028;19.938;2022-10-22T15:56:26;14.00;;;8.52;;
21754;SDS011;11039;50.028;19.938;2022-10-22T15:58:53;10.70;;;7.60;;
21754;SDS011;11039;50.028;19.938;2022-10-22T16:01:19;12.48;;;7.95;;